This is the latest recevied weather packets stored in our database for station/object HK2LS-SM. If no packets are shown the sender has not sent any weather packets the latest 10 day(s).
| Time | Temp. | Humidity | Pressure | Rain* | Wind** | Luminosity | Snow |
|---|---|---|---|---|---|---|---|
| 1777492357 | 30.56° C | 70% | 1005.4 hPa | 0 mm | - | - | - |
| 1777492056 | 31.11° C | 69% | 1005.4 hPa | 0 mm | - | - | - |
| 1777490851 | 31.11° C | 68% | 1005.4 hPa | 0 mm | - | - | - |
| 1777486716 | 32.78° C | 67% | 1006.4 hPa | 0 mm | - | - | - |
| 1777484275 | 33.33° C | 66% | 1007.1 hPa | 0 mm | - | - | - |
| 1777479663 | 31.11° C | 71% | 1008.1 hPa | 0 mm | - | - | - |
| 1777478459 | 30.56° C | 72% | 1008.1 hPa | 0 mm | - | - | - |
| 1777478157 | 30.56° C | 72% | 1008.5 hPa | 0 mm | - | - | - |
| 1777475416 | 31.11° C | 70% | 1008.5 hPa | 0 mm | - | - | - |
| 1777473577 | 31.67° C | 67% | 1008.5 hPa | 0 mm | - | - | - |
| 1777471770 | 32.22° C | 67% | 1008.5 hPa | 0 mm | - | - | - |
| 1777467729 | 32.22° C | 65% | 1008.1 hPa | 0 mm | - | - | - |
| 1777465558 | 31.67° C | 66% | 1007.8 hPa | 0 mm | - | - | - |
| 1777465257 | 30.56° C | 70% | 1007.8 hPa | 0 mm | - | - | - |
| 1777464229 | 28.89° C | 73% | 1007.8 hPa | 0 mm | - | - | - |
| 1777463897 | 28.89° C | 75% | 1007.8 hPa | 0 mm | - | - | - |
| 1777456459 | 27.78° C | 75% | 1006.4 hPa | 0 mm | - | - | - |
| 1777455857 | 28.33° C | 75% | 1006.8 hPa | 0 mm | - | - | - |
| 1777454019 | 27.78° C | 75% | 1006.4 hPa | 0 mm | - | - | - |
| 1777453417 | 27.78° C | 76% | 1006.8 hPa | 0 mm | - | - | - |
| 1777451549 | 28.33° C | 76% | 1006.8 hPa | 0 mm | - | - | - |
| 1777451248 | 28.33° C | 76% | 1006.8 hPa | 0 mm | - | - | - |
| 1777450012 | 28.33° C | 75% | 1006.8 hPa | 0 mm | - | - | - |
| 1777443807 | 28.89° C | 75% | 1007.1 hPa | 0 mm | - | - | - |
| 1777441970 | 28.33° C | 75% | 1007.1 hPa | 0 mm | - | - | - |
* Rain latest hour (hover to see other rain measurements)
** Current wind speed in m/s (hover to see current wind gust speed)